Time;durP1;ratioP1;P1;durP2;ratioP2;P2;SDS_P1;SDS_P2;PMS_P1;PMS_P2;Temp;Humidity;BMP_temperature;BMP_pressure;BME280_temperature;BME280_humidity;BME280_pressure;Samples;Min_cycle;Max_cycle;Signal;HPM_P1;HPM_P2
2021/04/07 00:00:42;;;;;;;12.47;10.77;;;2.40;99.90;;;;;;5113082;28;20169;-65
2021/04/07 00:03:09;;;;;;;13.47;10.60;;;2.40;99.90;;;;;;5113043;28;20150;-65
2021/04/07 00:05:40;;;;;;;10.30;9.00;;;2.40;99.90;;;;;;5112949;28;20154;-65
2021/04/07 00:08:07;;;;;;;10.07;9.10;;;2.40;99.90;;;;;;5113304;28;20413;-65
2021/04/07 00:10:37;;;;;;;13.17;9.03;;;2.40;99.90;;;;;;5112171;28;20419;-66
2021/04/07 00:13:03;;;;;;;14.50;8.70;;;2.40;99.90;;;;;;5112779;28;20392;-65
2021/04/07 00:15:29;;;;;;;15.77;10.93;;;2.40;99.90;;;;;;5113409;28;20885;-65
2021/04/07 00:17:55;;;;;;;18.27;10.23;;;2.40;99.90;;;;;;5117089;27;20400;-65
2021/04/07 00:20:24;;;;;;;27.80;14.90;;;2.40;99.90;;;;;;5115698;28;20423;-65
2021/04/07 00:22:50;;;;;;;18.73;9.10;;;2.40;99.90;;;;;;5117006;28;20495;-65
2021/04/07 00:25:17;;;;;;;13.20;8.17;;;2.40;99.90;;;;;;5117171;28;20523;-65
2021/04/07 00:27:44;;;;;;;16.57;9.57;;;2.40;99.90;;;;;;5115851;28;20908;-65
2021/04/07 00:30:11;;;;;;;12.30;8.73;;;2.30;99.90;;;;;;5116924;28;20481;-65
2021/04/07 00:32:37;;;;;;;15.03;10.80;;;2.30;99.90;;;;;;5115593;28;20383;-65
2021/04/07 00:35:04;;;;;;;9.40;8.40;;;2.30;99.90;;;;;;5116608;28;20438;-65
2021/04/07 00:37:30;;;;;;;12.83;7.87;;;2.30;99.90;;;;;;5117093;28;20509;-65
2021/04/07 00:39:55;;;;;;;9.73;7.00;;;2.30;99.90;;;;;;5116892;28;20765;-65
2021/04/07 00:42:22;;;;;;;14.03;7.37;;;2.30;99.90;;;;;;5116492;28;20153;-65
2021/04/07 00:44:47;;;;;;;10.80;8.10;;;2.30;99.90;;;;;;5115883;28;20242;-65
2021/04/07 00:47:16;;;;;;;10.30;7.40;;;2.30;99.90;;;;;;5115344;28;20421;-65
2021/04/07 00:49:42;;;;;;;14.03;6.87;;;2.30;99.90;;;;;;5116580;28;20150;-65
2021/04/07 00:52:08;;;;;;;8.00;7.20;;;2.30;99.90;;;;;;5117010;28;20760;-66
2021/04/07 00:54:34;;;;;;;12.10;6.60;;;2.30;99.90;;;;;;5116261;28;20700;-65
2021/04/07 00:56:59;;;;;;;19.10;10.53;;;2.30;99.90;;;;;;5116423;28;20396;-65
2021/04/07 00:59:25;;;;;;;13.97;9.13;;;2.30;99.90;;;;;;5116592;27;20394;-65
2021/04/07 01:01:51;;;;;;;13.23;9.07;;;2.30;99.90;;;;;;5115414;28;20255;-65
2021/04/07 01:04:19;;;;;;;12.30;9.70;;;2.30;99.90;;;;;;5116452;28;20168;-65
2021/04/07 01:06:46;;;;;;;14.03;9.90;;;2.30;99.90;;;;;;5116574;28;20158;-65
2021/04/07 01:09:11;;;;;;;12.50;8.03;;;2.30;99.90;;;;;;5116026;28;20387;-65
2021/04/07 01:11:37;;;;;;;20.23;10.70;;;2.30;99.90;;;;;;5116045;28;20741;-65
2021/04/07 01:14:03;;;;;;;17.60;10.10;;;2.30;99.90;;;;;;5115891;28;20238;-65
2021/04/07 01:16:29;;;;;;;11.80;9.03;;;2.20;99.90;;;;;;5116269;28;20603;-65
2021/04/07 01:18:55;;;;;;;15.33;9.87;;;2.20;99.90;;;;;;5115208;28;20763;-65
2021/04/07 01:21:20;;;;;;;13.77;10.67;;;2.20;99.90;;;;;;5116275;28;20376;-65
2021/04/07 01:23:47;;;;;;;20.50;10.53;;;2.20;99.90;;;;;;5115913;28;20192;-65
2021/04/07 01:26:14;;;;;;;16.23;8.37;;;2.20;99.90;;;;;;5114273;28;20162;-65
2021/04/07 01:28:40;;;;;;;12.23;8.43;;;2.30;99.90;;;;;;5098863;28;20404;-65
2021/04/07 01:31:06;;;;;;;10.77;8.13;;;2.20;99.90;;;;;;5095416;28;20388;-65
2021/04/07 01:33:32;;;;;;;13.50;8.83;;;2.20;99.90;;;;;;5095318;28;20451;-65
2021/04/07 01:35:58;;;;;;;12.50;9.80;;;2.20;99.90;;;;;;5096073;28;20568;-65
2021/04/07 01:38:24;;;;;;;19.40;9.93;;;2.20;99.90;;;;;;5095559;28;20158;-65
2021/04/07 01:40:51;;;;;;;16.40;8.50;;;2.20;99.90;;;;;;5094177;28;20166;-65
2021/04/07 01:43:19;;;;;;;17.40;11.70;;;2.20;99.90;;;;;;5095234;28;20392;-65
2021/04/07 01:45:46;;;;;;;18.70;12.93;;;2.20;99.90;;;;;;5095248;28;20940;-65
2021/04/07 01:48:14;;;;;;;14.73;12.00;;;2.20;99.90;;;;;;5093739;28;20391;-66
2021/04/07 01:50:41;;;;;;;16.43;13.03;;;2.10;99.90;;;;;;5095188;28;20475;-65
2021/04/07 01:53:10;;;;;;;15.00;11.33;;;2.10;99.90;;;;;;5095421;28;20437;-65
2021/04/07 01:55:35;;;;;;;9.40;8.37;;;2.10;99.90;;;;;;5094855;28;20391;-65
2021/04/07 01:58:01;;;;;;;13.90;8.57;;;2.10;99.90;;;;;;5094795;28;20399;-65
2021/04/07 02:00:27;;;;;;;12.60;9.40;;;2.10;99.90;;;;;;5093815;28;20173;-65
2021/04/07 02:02:52;;;;;;;12.37;8.20;;;2.00;99.90;;;;;;5094811;28;20426;-65
2021/04/07 02:05:18;;;;;;;10.97;9.13;;;2.00;99.90;;;;;;5094740;28;20498;-65
2021/04/07 02:07:44;;;;;;;15.37;8.50;;;2.00;99.90;;;;;;5094622;28;20161;-65
2021/04/07 02:10:10;;;;;;;15.50;8.80;;;2.10;99.90;;;;;;5095068;28;20289;-65
2021/04/07 02:12:36;;;;;;;15.70;8.60;;;2.10;99.90;;;;;;5094896;28;20159;-65
2021/04/07 02:15:10;;;;;;;13.50;8.73;;;2.10;99.90;;;;;;5094423;28;20769;-65
2021/04/07 02:17:36;;;;;;;14.67;9.50;;;2.00;99.90;;;;;;5094654;28;20525;-65
2021/04/07 02:20:02;;;;;;;15.10;9.40;;;2.00;99.90;;;;;;5094346;28;20798;-65
2021/04/07 02:22:28;;;;;;;13.00;8.23;;;2.10;99.90;;;;;;5094581;28;20620;-65
2021/04/07 02:24:53;;;;;;;10.03;8.13;;;2.10;99.90;;;;;;5094371;28;20478;-65
2021/04/07 02:27:21;;;;;;;8.57;7.47;;;2.10;99.90;;;;;;5100222;28;20656;-65
2021/04/07 02:29:49;;;;;;;9.33;7.10;;;2.20;99.90;;;;;;5113240;28;20168;-66
2021/04/07 02:32:15;;;;;;;10.90;6.67;;;2.20;99.90;;;;;;5113368;28;20955;-65
2021/04/07 02:34:42;;;;;;;7.13;6.20;;;2.20;99.90;;;;;;5113149;28;20552;-66
2021/04/07 02:37:09;;;;;;;9.67;6.60;;;2.20;99.90;;;;;;5114840;28;20655;-65
2021/04/07 02:39:34;;;;;;;12.87;7.10;;;2.20;99.90;;;;;;5114089;28;20775;-65
2021/04/07 02:42:00;;;;;;;11.80;7.43;;;2.10;99.90;;;;;;5114942;28;20391;-66
2021/04/07 02:44:25;;;;;;;11.17;6.70;;;2.10;99.90;;;;;;5113498;28;20259;-65
2021/04/07 02:46:51;;;;;;;6.83;5.53;;;2.10;99.90;;;;;;5114308;28;20190;-65
2021/04/07 02:49:17;;;;;;;10.07;7.40;;;2.10;99.90;;;;;;5114466;28;20157;-65
2021/04/07 02:51:42;;;;;;;9.20;7.03;;;2.20;99.90;;;;;;5114204;28;20178;-66
2021/04/07 02:54:08;;;;;;;8.87;6.50;;;2.20;99.90;;;;;;5114049;28;20200;-65
2021/04/07 02:56:33;;;;;;;8.17;6.57;;;2.20;99.90;;;;;;5114533;28;20218;-65
2021/04/07 02:59:00;;;;;;;14.20;7.40;;;2.20;99.90;;;;;;5114150;28;20188;-65
2021/04/07 03:01:26;;;;;;;8.57;7.70;;;2.20;99.90;;;;;;5113234;28;20166;-66
2021/04/07 03:03:52;;;;;;;8.53;7.30;;;2.30;99.90;;;;;;5114367;27;20395;-65
2021/04/07 03:06:18;;;;;;;9.03;8.07;;;2.30;99.90;;;;;;5112719;28;20979;-65
2021/04/07 03:08:43;;;;;;;13.20;8.37;;;2.30;99.90;;;;;;5114125;28;20504;-65
2021/04/07 03:11:09;;;;;;;18.00;9.30;;;2.30;99.90;;;;;;5113869;28;20391;-65
2021/04/07 03:13:35;;;;;;;9.33;8.27;;;2.30;99.90;;;;;;5114075;28;20228;-65
2021/04/07 03:16:00;;;;;;;12.90;8.90;;;2.20;99.90;;;;;;5113971;28;20387;-65
2021/04/07 03:18:26;;;;;;;10.00;8.93;;;2.20;99.90;;;;;;5099146;28;20181;-65
2021/04/07 03:20:51;;;;;;;11.70;8.90;;;2.20;99.90;;;;;;5093681;28;20154;-65
2021/04/07 03:23:17;;;;;;;10.97;9.57;;;2.20;99.90;;;;;;5093418;28;20177;-65
2021/04/07 03:25:43;;;;;;;10.50;8.80;;;2.20;99.90;;;;;;5093284;28;20165;-65
2021/04/07 03:28:09;;;;;;;14.03;9.50;;;2.30;99.90;;;;;;5093363;28;20257;-65
2021/04/07 03:30:50;;;;;;;10.53;8.43;;;2.30;99.90;;;;;;5093447;28;20866;-66
2021/04/07 03:36:00;;;;;;;11.70;9.83;;;2.30;99.90;;;;;;5091689;27;20511;-65
2021/04/07 03:38:26;;;;;;;12.53;9.70;;;2.30;99.90;;;;;;5090481;28;20446;-65
2021/04/07 03:40:52;;;;;;;10.37;9.07;;;2.30;99.90;;;;;;5090253;28;20882;-65
2021/04/07 03:43:20;;;;;;;12.83;10.07;;;2.30;99.90;;;;;;5090261;28;20416;-65
2021/04/07 03:45:49;;;;;;;11.80;10.00;;;2.30;99.90;;;;;;5090448;28;20420;-65
2021/04/07 03:48:17;;;;;;;12.33;8.97;;;2.30;99.90;;;;;;5090241;28;20395;-65
2021/04/07 03:50:44;;;;;;;10.23;8.50;;;2.30;99.90;;;;;;5105501;28;20458;-65
2021/04/07 03:53:11;;;;;;;12.30;10.43;;;2.30;99.90;;;;;;5089996;28;20419;-65
2021/04/07 03:55:38;;;;;;;11.10;10.00;;;2.30;99.90;;;;;;5089944;28;20494;-65
2021/04/07 03:58:04;;;;;;;11.00;9.90;;;2.30;99.90;;;;;;5089909;28;20392;-65
2021/04/07 04:00:30;;;;;;;14.97;10.07;;;2.30;99.90;;;;;;5090069;28;20490;-65
2021/04/07 04:02:56;;;;;;;14.10;10.03;;;2.20;99.90;;;;;;5090341;28;20165;-65
2021/04/07 04:05:21;;;;;;;10.50;9.50;;;2.20;99.90;;;;;;5090190;28;20766;-65
2021/04/07 04:07:47;;;;;;;10.90;9.80;;;2.20;99.90;;;;;;5089622;28;20173;-65
2021/04/07 04:10:14;;;;;;;15.67;11.63;;;2.20;99.90;;;;;;5089621;28;20196;-65
2021/04/07 04:12:40;;;;;;;13.23;11.10;;;2.20;99.90;;;;;;5089840;28;20477;-65
2021/04/07 04:15:09;;;;;;;12.80;10.90;;;2.20;99.90;;;;;;5089726;28;20448;-65
2021/04/07 04:17:36;;;;;;;12.60;11.00;;;2.20;99.90;;;;;;5090017;28;20396;-65
2021/04/07 04:20:03;;;;;;;13.77;12.47;;;2.20;99.90;;;;;;5089598;28;20388;-65
2021/04/07 04:22:28;;;;;;;18.40;12.80;;;2.20;99.90;;;;;;5089495;28;20418;-65
2021/04/07 04:24:54;;;;;;;14.70;12.30;;;2.20;99.90;;;;;;5089688;28;20389;-65
2021/04/07 04:27:19;;;;;;;16.30;14.23;;;2.20;99.90;;;;;;5089509;28;20191;-65
2021/04/07 04:29:45;;;;;;;15.10;13.60;;;2.20;99.90;;;;;;5089895;28;20167;-65
2021/04/07 04:32:10;;;;;;;20.07;13.97;;;2.10;99.90;;;;;;5089432;28;20167;-65
2021/04/07 04:34:36;;;;;;;16.20;13.40;;;2.10;99.90;;;;;;5089179;28;20202;-65
2021/04/07 04:37:02;;;;;;;20.37;15.67;;;2.10;99.90;;;;;;5089381;28;20154;-65
2021/04/07 04:39:27;;;;;;;17.43;14.87;;;2.10;99.90;;;;;;5089314;28;20921;-65
2021/04/07 04:41:53;;;;;;;17.63;15.07;;;2.20;99.90;;;;;;5089411;28;20161;-65
2021/04/07 04:44:19;;;;;;;17.93;12.90;;;2.20;99.90;;;;;;5089374;28;20166;-65
2021/04/07 04:46:44;;;;;;;17.77;15.33;;;2.20;99.90;;;;;;5078797;28;20186;-65
2021/04/07 04:49:09;;;;;;;16.83;13.87;;;2.30;99.90;;;;;;5075596;28;20332;-65
2021/04/07 04:51:35;;;;;;;17.27;14.17;;;2.20;99.90;;;;;;5075530;28;20261;-65
2021/04/07 04:54:01;;;;;;;18.60;14.40;;;2.20;99.90;;;;;;5075451;28;20261;-65
2021/04/07 04:56:26;;;;;;;16.73;14.57;;;2.20;99.90;;;;;;5075850;28;20159;-65
2021/04/07 04:58:52;;;;;;;14.80;13.23;;;2.20;99.90;;;;;;5075421;28;20155;-65
2021/04/07 05:01:17;;;;;;;16.27;14.40;;;2.20;99.90;;;;;;5075384;28;20688;-65
2021/04/07 05:03:43;;;;;;;16.13;13.60;;;2.20;99.90;;;;;;5075390;28;20211;-65
2021/04/07 05:06:08;;;;;;;19.33;13.00;;;2.20;99.90;;;;;;5075578;28;20174;-65
2021/04/07 05:08:34;;;;;;;16.97;12.53;;;2.20;99.90;;;;;;5075449;28;20216;-65
2021/04/07 05:10:59;;;;;;;20.00;14.73;;;2.20;99.90;;;;;;5075768;28;20238;-65
2021/04/07 05:13:25;;;;;;;14.77;12.20;;;2.20;99.90;;;;;;5075375;28;20152;-65
2021/04/07 05:15:50;;;;;;;15.20;13.80;;;2.20;99.90;;;;;;5074979;28;20190;-65
2021/04/07 05:18:17;;;;;;;15.50;13.70;;;2.20;99.90;;;;;;5075233;28;20636;-65
2021/04/07 05:20:43;;;;;;;13.60;12.20;;;2.20;99.90;;;;;;5075280;28;20163;-65
2021/04/07 05:23:10;;;;;;;15.70;12.77;;;2.10;99.90;;;;;;5075497;28;20382;-65
2021/04/07 05:25:36;;;;;;;12.53;11.23;;;2.10;99.90;;;;;;5075361;28;20489;-65
2021/04/07 05:28:04;;;;;;;12.97;11.53;;;2.10;99.90;;;;;;5075169;28;20757;-65
2021/04/07 05:30:58;;;;;;;13.90;11.77;;;2.00;99.90;;;;;;5075072;28;20892;-65
2021/04/07 05:33:16;;;;;;;13.90;11.70;;;2.00;99.90;;;;;;5073785;28;20427;-65
2021/04/07 05:35:42;;;;;;;11.37;10.30;;;2.00;99.90;;;;;;5074787;28;20478;-65
2021/04/07 05:38:08;;;;;;;11.23;10.10;;;1.90;99.90;;;;;;5075030;28;20383;-65
2021/04/07 05:40:33;;;;;;;14.13;12.37;;;1.90;99.90;;;;;;5075052;28;20241;-65
2021/04/07 05:43:03;;;;;;;14.47;11.43;;;1.90;99.90;;;;;;5074860;28;20310;-65
2021/04/07 05:45:28;;;;;;;15.80;11.60;;;1.90;99.90;;;;;;5074657;28;20381;-65
2021/04/07 05:47:54;;;;;;;14.83;13.20;;;1.80;99.90;;;;;;5074738;28;20902;-64
2021/04/07 05:50:19;;;;;;;15.27;12.53;;;1.90;99.90;;;;;;5074426;28;20635;-64
2021/04/07 05:52:49;;;;;;;15.90;13.40;;;1.90;99.90;;;;;;5074560;28;20231;-66
2021/04/07 05:55:15;;;;;;;15.10;13.50;;;1.90;99.90;;;;;;5074359;28;20238;-65
2021/04/07 05:57:41;;;;;;;15.70;14.20;;;1.90;99.90;;;;;;5073588;28;20394;-64
2021/04/07 06:00:07;;;;;;;14.73;13.13;;;1.90;99.90;;;;;;5074354;28;20159;-65
2021/04/07 06:02:32;;;;;;;15.10;13.10;;;1.90;99.90;;;;;;5074241;28;20186;-64
2021/04/07 06:04:58;;;;;;;15.47;13.90;;;1.90;99.90;;;;;;5074348;28;20936;-65
2021/04/07 06:07:24;;;;;;;17.77;14.67;;;1.90;99.90;;;;;;5074229;28;20196;-65
2021/04/07 06:09:49;;;;;;;15.97;14.27;;;1.90;99.90;;;;;;5074279;28;20397;-64
2021/04/07 06:12:15;;;;;;;14.50;13.10;;;1.90;99.90;;;;;;5073981;28;20533;-64
2021/04/07 06:14:40;;;;;;;15.80;14.10;;;1.80;99.90;;;;;;5073999;28;20279;-64
2021/04/07 06:17:06;;;;;;;16.43;14.17;;;1.90;99.90;;;;;;5074219;28;20207;-64
2021/04/07 06:19:31;;;;;;;16.47;12.73;;;1.90;99.90;;;;;;5074038;28;20199;-65
2021/04/07 06:21:57;;;;;;;17.03;14.60;;;1.90;99.90;;;;;;5074280;28;20276;-65
2021/04/07 06:24:22;;;;;;;19.70;14.70;;;1.90;99.90;;;;;;5073720;28;20657;-65
2021/04/07 06:26:48;;;;;;;15.60;14.00;;;1.90;99.90;;;;;;5073760;28;20651;-65
2021/04/07 06:29:13;;;;;;;15.10;13.50;;;1.90;99.90;;;;;;5073748;28;20565;-64
2021/04/07 06:31:39;;;;;;;14.27;12.67;;;1.90;99.90;;;;;;5073901;28;20531;-64
2021/04/07 06:34:04;;;;;;;15.77;14.07;;;1.90;99.90;;;;;;5073469;28;20213;-65
2021/04/07 06:36:30;;;;;;;16.20;14.50;;;1.90;99.90;;;;;;5073692;28;20208;-64
2021/04/07 06:38:55;;;;;;;14.10;12.60;;;1.90;99.90;;;;;;5073604;28;20158;-65
2021/04/07 06:41:21;;;;;;;13.83;12.40;;;1.90;99.90;;;;;;5073355;28;20181;-64
2021/04/07 06:43:50;;;;;;;13.53;12.13;;;1.90;99.90;;;;;;5073524;28;20588;-64
2021/04/07 06:46:20;;;;;;;17.63;15.57;;;1.90;99.90;;;;;;5073529;28;20187;-65
2021/04/07 06:48:47;;;;;;;14.90;12.27;;;1.90;99.90;;;;;;5073604;28;20445;-65
2021/04/07 06:51:17;;;;;;;13.63;12.23;;;2.00;99.90;;;;;;5073599;28;20761;-65
2021/04/07 06:53:43;;;;;;;14.53;13.03;;;2.00;99.90;;;;;;5073386;28;20932;-65
2021/04/07 06:56:10;;;;;;;13.67;12.23;;;2.00;99.90;;;;;;5073441;28;20458;-65
2021/04/07 06:58:35;;;;;;;13.93;12.63;;;2.00;99.90;;;;;;5073394;28;20415;-64
2021/04/07 07:01:01;;;;;;;13.33;11.30;;;2.00;99.90;;;;;;5073291;28;20379;-65
2021/04/07 07:03:26;;;;;;;12.73;11.53;;;2.00;99.90;;;;;;5073484;28;20163;-65
2021/04/07 07:05:54;;;;;;;16.93;15.13;;;2.00;99.90;;;;;;5073371;28;20163;-65
2021/04/07 07:08:20;;;;;;;17.97;12.93;;;2.10;99.90;;;;;;5073377;28;20161;-65
2021/04/07 07:10:49;;;;;;;15.37;12.73;;;2.10;99.90;;;;;;5073155;28;20404;-65
2021/04/07 07:13:18;;;;;;;16.13;13.53;;;2.10;99.90;;;;;;5073105;28;20420;-65
2021/04/07 07:15:44;;;;;;;16.30;14.30;;;2.00;99.90;;;;;;5072949;28;20449;-65
2021/04/07 07:18:18;;;;;;;17.40;15.10;;;2.00;99.90;;;;;;5073103;28;20382;-65
2021/04/07 07:20:43;;;;;;;15.13;13.57;;;2.00;99.90;;;;;;5073167;28;20882;-65
2021/04/07 07:23:21;;;;;;;15.50;14.00;;;2.00;99.90;;;;;;5073044;28;20420;-65
2021/04/07 07:25:54;;;;;;;21.77;14.70;;;2.10;99.90;;;;;;5073339;28;20191;-65
2021/04/07 07:28:20;;;;;;;16.27;14.17;;;2.10;99.90;;;;;;5073084;28;20392;-65
2021/04/07 07:30:47;;;;;;;16.97;14.70;;;2.20;99.90;;;;;;5072915;28;20411;-65
2021/04/07 07:33:14;;;;;;;17.67;13.30;;;2.10;99.90;;;;;;5073155;28;20548;-65
2021/04/07 07:35:40;;;;;;;16.17;14.47;;;2.20;99.90;;;;;;5072731;28;20826;-67
2021/04/07 07:38:05;;;;;;;19.23;15.23;;;2.30;99.90;;;;;;5073234;28;20476;-67
2021/04/07 07:40:31;;;;;;;18.70;13.93;;;2.30;99.90;;;;;;5073147;28;20820;-67
2021/04/07 07:42:57;;;;;;;17.37;12.43;;;2.30;99.90;;;;;;5071670;28;20620;-66
2021/04/07 07:45:27;;;;;;;16.00;12.87;;;2.30;99.90;;;;;;5072757;28;20473;-67
2021/04/07 07:48:03;;;;;;;14.40;12.90;;;2.30;99.90;;;;;;5072836;28;20154;-67
2021/04/07 07:50:38;;;;;;;14.47;12.87;;;2.40;99.90;;;;;;5072692;28;20455;-67
2021/04/07 07:53:13;;;;;;;14.67;12.80;;;2.30;99.90;;;;;;5072858;28;20436;-67
2021/04/07 07:55:40;;;;;;;16.60;13.40;;;2.30;99.90;;;;;;5072897;28;20436;-67
2021/04/07 07:58:06;;;;;;;13.53;12.23;;;2.40;99.90;;;;;;5072620;28;20747;-67
2021/04/07 08:00:31;;;;;;;14.80;12.33;;;2.30;99.90;;;;;;5072881;28;20432;-67
2021/04/07 08:03:14;;;;;;;12.63;11.00;;;2.40;99.90;;;;;;5072624;28;20439;-67
2021/04/07 08:05:42;;;;;;;13.67;12.27;;;2.40;99.90;;;;;;5072615;28;20613;-67
2021/04/07 08:08:09;;;;;;;16.30;10.83;;;2.50;99.90;;;;;;5072164;28;20409;-67
2021/04/07 08:10:37;;;;;;;11.60;10.43;;;2.40;99.90;;;;;;5072594;28;20720;-67
2021/04/07 08:13:04;;;;;;;10.90;9.77;;;2.40;99.90;;;;;;5072664;28;20381;-67
2021/04/07 08:15:31;;;;;;;14.83;10.80;;;2.40;99.90;;;;;;5072318;28;20984;-67
2021/04/07 08:17:58;;;;;;;11.57;10.00;;;2.40;99.90;;;;;;5072941;28;20412;-67
2021/04/07 08:20:24;;;;;;;13.33;11.13;;;2.40;99.90;;;;;;5072641;28;20439;-67
2021/04/07 08:22:53;;;;;;;11.67;10.50;;;2.40;99.90;;;;;;5075910;28;20409;-67
2021/04/07 08:25:21;;;;;;;13.40;12.10;;;2.40;99.90;;;;;;5074964;28;20421;-67
2021/04/07 08:27:51;;;;;;;16.57;13.10;;;2.40;99.90;;;;;;5074956;28;20397;-67
2021/04/07 08:30:17;;;;;;;14.40;13.00;;;2.40;99.90;;;;;;5076240;28;20822;-67
2021/04/07 08:32:45;;;;;;;13.80;12.43;;;2.40;99.90;;;;;;5076147;28;20397;-67
2021/04/07 08:35:11;;;;;;;16.30;14.70;;;2.50;99.90;;;;;;5075585;28;20465;-67
2021/04/07 08:37:37;;;;;;;15.47;13.90;;;2.50;99.90;;;;;;5076093;28;20381;-67
2021/04/07 08:40:18;;;;;;;15.50;13.87;;;2.60;99.90;;;;;;5075792;28;20425;-67
2021/04/07 08:42:44;;;;;;;15.50;13.93;;;2.60;99.90;;;;;;5075968;28;20186;-67
2021/04/07 08:45:17;;;;;;;15.47;13.97;;;2.70;99.90;;;;;;5075917;28;20427;-67
2021/04/07 08:47:55;;;;;;;15.13;13.50;;;2.70;99.90;;;;;;5075704;28;20574;-67
2021/04/07 08:50:30;;;;;;;16.77;14.33;;;2.70;99.90;;;;;;5075719;28;20387;-67
2021/04/07 08:52:56;;;;;;;15.90;14.30;;;2.70;99.90;;;;;;5075634;28;20417;-67
2021/04/07 08:55:27;;;;;;;19.83;14.47;;;2.80;99.90;;;;;;5075508;28;20492;-67
2021/04/07 09:00:40;;;;;;;16.63;14.90;;;2.80;99.90;;;;;;5131600;27;20506;-66
2021/04/07 09:03:15;;;;;;;17.17;14.37;;;2.80;99.90;;;;;;5131415;27;20755;-66
2021/04/07 09:05:45;;;;;;;16.40;14.77;;;2.90;99.90;;;;;;5131586;27;20386;-66
2021/04/07 09:08:16;;;;;;;14.97;13.47;;;2.90;99.90;;;;;;5131566;27;20383;-66
2021/04/07 09:13:22;;;;;;;13.60;12.20;;;2.90;99.90;;;;;;5131542;27;21105;-66
2021/04/07 09:18:35;;;;;;;12.60;11.30;;;3.00;99.90;;;;;;5131454;27;20507;-65
2021/04/07 09:21:02;;;;;;;11.97;10.87;;;3.10;99.90;;;;;;5131291;27;20466;-65
2021/04/07 09:23:31;;;;;;;12.20;11.00;;;3.10;99.90;;;;;;5131270;27;20394;-65
2021/04/07 09:26:17;;;;;;;11.20;10.10;;;3.10;99.90;;;;;;5131416;27;20878;-65
2021/04/07 09:28:45;;;;;;;13.40;12.00;;;3.10;99.90;;;;;;5131235;27;20416;-65
2021/04/07 09:33:55;;;;;;;13.23;11.27;;;3.10;99.90;;;;;;5131412;27;20949;-65
2021/04/07 09:36:26;;;;;;;11.77;10.67;;;3.20;99.90;;;;;;5131369;28;20901;-65
2021/04/07 09:38:54;;;;;;;13.47;12.07;;;3.20;99.90;;;;;;5131518;28;20386;-65
2021/04/07 09:41:22;;;;;;;12.50;11.30;;;3.30;99.90;;;;;;5131271;28;20383;-65
2021/04/07 09:43:49;;;;;;;14.00;10.80;;;3.20;99.90;;;;;;5131071;28;20378;-65
2021/04/07 09:46:15;;;;;;;11.50;9.90;;;3.20;99.90;;;;;;5131027;28;20411;-65
2021/04/07 09:48:44;;;;;;;10.77;9.80;;;3.20;99.90;;;;;;5122566;27;20491;-65
2021/04/07 09:54:24;;;;;;;12.57;11.47;;;3.30;99.90;;;;;;5131511;27;20504;-64
2021/04/07 10:02:26;;;;;;;10.50;9.40;;;3.50;99.90;;;;;;5131443;27;20556;-65
2021/04/07 10:04:53;;;;;;;8.37;7.50;;;3.50;99.90;;;;;;5130262;28;20394;-65
2021/04/07 10:07:23;;;;;;;8.23;7.53;;;3.60;99.90;;;;;;5110950;28;20372;-65
2021/04/07 10:09:50;;;;;;;8.90;8.07;;;3.70;99.90;;;;;;5110816;28;20789;-65
2021/04/07 10:12:19;;;;;;;7.63;6.93;;;3.70;99.90;;;;;;5109471;28;20763;-65
2021/04/07 10:14:55;;;;;;;7.93;7.20;;;3.70;99.90;;;;;;5109487;28;20449;-65
2021/04/07 10:17:25;;;;;;;7.00;6.40;;;3.80;99.90;;;;;;5110686;28;20391;-65
2021/04/07 10:19:50;;;;;;;7.07;6.47;;;3.90;99.90;;;;;;5110733;28;20402;-65
2021/04/07 10:22:26;;;;;;;6.83;6.20;;;3.90;99.90;;;;;;5111079;28;20408;-65
2021/04/07 10:24:57;;;;;;;7.00;6.40;;;4.00;99.90;;;;;;5120632;28;20180;-65
2021/04/07 10:27:24;;;;;;;6.50;5.90;;;4.00;99.90;;;;;;5129808;28;20391;-65
2021/04/07 10:30:04;;;;;;;6.80;6.30;;;4.00;99.90;;;;;;5130914;28;20379;-65
2021/04/07 10:32:29;;;;;;;8.00;7.40;;;4.00;99.90;;;;;;5131257;28;20387;-65
2021/04/07 10:35:00;;;;;;;7.33;6.67;;;4.10;99.90;;;;;;5131060;28;20887;-65
2021/04/07 10:37:26;;;;;;;6.53;6.03;;;4.10;99.90;;;;;;5130719;28;20157;-65
2021/04/07 10:39:51;;;;;;;7.47;6.77;;;4.10;99.90;;;;;;5129668;28;20407;-65
2021/04/07 10:42:18;;;;;;;6.83;6.13;;;4.20;99.90;;;;;;5130589;28;20207;-65
2021/04/07 10:44:55;;;;;;;5.97;5.50;;;4.30;99.90;;;;;;5130634;28;20161;-65
2021/04/07 10:47:22;;;;;;;6.23;5.73;;;4.30;99.90;;;;;;5130969;28;20915;-65
2021/04/07 10:49:57;;;;;;;9.57;5.50;;;4.40;99.90;;;;;;5130364;28;20470;-65
2021/04/07 10:52:43;;;;;;;6.10;5.50;;;4.40;99.90;;;;;;5130413;28;20406;-65
2021/04/07 10:57:48;;;;;;;6.70;6.20;;;4.40;99.90;;;;;;5093103;27;20568;-66
2021/04/07 11:03:02;;;;;;;6.43;6.03;;;4.50;99.90;;;;;;5090649;28;20511;-65
2021/04/07 11:08:16;;;;;;;6.10;5.63;;;4.50;99.90;;;;;;5131405;27;20975;-65
2021/04/07 11:10:44;;;;;;;6.07;5.57;;;4.50;99.90;;;;;;5131391;28;20376;-65
2021/04/07 11:13:12;;;;;;;6.03;5.53;;;4.50;99.90;;;;;;5127440;28;20177;-65
2021/04/07 11:15:38;;;;;;;5.20;4.80;;;4.60;99.90;;;;;;5110774;28;20388;-65
2021/04/07 11:18:04;;;;;;;5.77;5.30;;;4.60;99.90;;;;;;5110612;28;20385;-65
2021/04/07 11:20:30;;;;;;;6.23;5.70;;;4.70;99.90;;;;;;5110697;28;20467;-65
2021/04/07 11:22:56;;;;;;;7.47;6.77;;;4.70;99.90;;;;;;5110881;28;20204;-65
2021/04/07 11:25:22;;;;;;;6.60;6.03;;;4.60;99.90;;;;;;5125092;28;20903;-65
2021/04/07 11:27:51;;;;;;;6.83;5.67;;;4.60;99.90;;;;;;5131033;28;20434;-65
2021/04/07 11:30:17;;;;;;;7.20;6.50;;;4.60;99.90;;;;;;5130111;28;20414;-65
2021/04/07 11:32:47;;;;;;;7.20;6.60;;;4.60;99.90;;;;;;5130997;28;20451;-65
2021/04/07 11:45:46;;;;;;;7.20;5.20;;;5.00;99.90;;;;;;5090437;27;20528;-66
2021/04/07 11:48:12;;;;;;;9.47;6.10;;;5.10;99.90;;;;;;5077862;28;20830;-66
2021/04/07 11:50:38;;;;;;;6.73;6.10;;;5.20;99.90;;;;;;5070124;28;20442;-67
2021/04/07 11:53:04;;;;;;;6.43;5.43;;;5.30;99.90;;;;;;5070317;28;20239;-66
2021/04/07 11:55:29;;;;;;;6.13;5.50;;;5.40;99.90;;;;;;5070097;28;20386;-66
2021/04/07 11:57:55;;;;;;;7.00;5.43;;;5.40;99.90;;;;;;5070182;28;20946;-66
2021/04/07 12:00:21;;;;;;;7.80;5.93;;;5.40;99.90;;;;;;5070125;28;20601;-66
2021/04/07 12:02:47;;;;;;;11.00;6.60;;;5.40;99.90;;;;;;5070359;28;20234;-66
2021/04/07 12:05:17;;;;;;;7.50;6.00;;;5.30;99.90;;;;;;5070603;28;20548;-66
2021/04/07 12:07:43;;;;;;;10.67;5.87;;;5.30;99.90;;;;;;5068874;28;20163;-66
2021/04/07 12:10:09;;;;;;;8.10;5.90;;;5.20;99.90;;;;;;5069841;28;20394;-66
2021/04/07 12:12:35;;;;;;;8.40;5.53;;;5.20;99.90;;;;;;5069828;28;20162;-66
2021/04/07 12:15:00;;;;;;;8.60;6.17;;;5.20;99.90;;;;;;5069689;28;20413;-66
2021/04/07 12:17:27;;;;;;;6.73;6.03;;;5.30;99.90;;;;;;5069722;28;20163;-66
2021/04/07 12:19:52;;;;;;;6.90;5.50;;;5.40;99.90;;;;;;5069795;28;20156;-67
2021/04/07 12:22:18;;;;;;;7.03;6.20;;;5.60;99.90;;;;;;5070074;28;20449;-66
2021/04/07 12:24:43;;;;;;;9.43;5.77;;;5.90;99.90;;;;;;5069351;28;20222;-67
2021/04/07 12:27:09;;;;;;;9.53;6.00;;;6.10;99.90;;;;;;5069596;28;20168;-70
2021/04/07 12:29:35;;;;;;;6.27;5.30;;;6.20;99.90;;;;;;5069574;28;20263;-66
2021/04/07 12:32:01;;;;;;;7.70;5.90;;;6.30;99.90;;;;;;5069487;28;20391;-66
2021/04/07 12:34:27;;;;;;;7.27;4.47;;;6.30;99.90;;;;;;5069604;28;21001;-66
2021/04/07 12:36:53;;;;;;;5.97;4.10;;;6.30;99.90;;;;;;5069604;28;20236;-66
2021/04/07 12:39:18;;;;;;;11.20;5.07;;;6.30;99.90;;;;;;5082582;28;20167;-66
2021/04/07 12:41:55;;;;;;;6.93;3.73;;;6.40;99.90;;;;;;5089680;28;20399;-66
2021/04/07 12:44:21;;;;;;;9.07;3.50;;;6.40;99.90;;;;;;5089247;28;20740;-66
2021/04/07 12:46:47;;;;;;;6.73;3.57;;;6.60;99.90;;;;;;5089464;28;20421;-66
2021/04/07 12:49:12;;;;;;;4.77;3.70;;;6.50;99.90;;;;;;5089319;28;20165;-66
2021/04/07 12:51:38;;;;;;;10.10;3.90;;;6.50;99.90;;;;;;5089260;28;20163;-66
2021/04/07 12:54:04;;;;;;;6.90;4.93;;;6.40;99.90;;;;;;5089298;28;20226;-66
2021/04/07 12:56:31;;;;;;;8.80;3.90;;;6.40;99.90;;;;;;5078430;28;20221;-66
2021/04/07 12:58:57;;;;;;;5.93;3.93;;;6.40;99.90;;;;;;5075937;28;20796;-66
2021/04/07 13:01:22;;;;;;;7.57;3.63;;;6.20;99.90;;;;;;5075897;28;20398;-66
2021/04/07 13:03:48;;;;;;;10.47;4.23;;;6.20;99.90;;;;;;5075570;28;20826;-66
2021/04/07 13:06:14;;;;;;;10.90;4.20;;;6.30;99.90;;;;;;5075549;28;20800;-66
2021/04/07 13:08:39;;;;;;;8.43;3.80;;;6.40;99.90;;;;;;5075482;28;20160;-66
2021/04/07 13:11:05;;;;;;;8.27;3.93;;;6.60;99.90;;;;;;5075489;28;20156;-66
2021/04/07 13:13:31;;;;;;;9.30;4.77;;;6.70;99.90;;;;;;5073462;28;20543;-66
2021/04/07 13:15:57;;;;;;;8.60;5.23;;;6.80;99.90;;;;;;5075321;28;20420;-66
2021/04/07 13:18:23;;;;;;;9.93;4.53;;;6.80;99.90;;;;;;5075277;28;20180;-66
2021/04/07 13:20:49;;;;;;;16.53;4.80;;;6.90;99.90;;;;;;5075326;28;20156;-66
2021/04/07 13:23:15;;;;;;;12.93;5.10;;;6.90;99.90;;;;;;5075232;28;20391;-66
2021/04/07 13:25:41;;;;;;;12.77;4.93;;;6.90;99.90;;;;;;5058217;28;20784;-66